createdAt,value
2022-09-05T00:00:31.239Z,20.20
2022-09-05T00:03:14.760Z,20.20
2022-09-05T00:06:10.173Z,20.10
2022-09-05T00:08:51.068Z,20.00
2022-09-05T00:11:42.899Z,20.00
2022-09-05T00:15:14.595Z,19.90
2022-09-05T00:18:06.528Z,20.00
2022-09-05T00:24:20.673Z,20.00
2022-09-05T00:24:33.160Z,20.10
2022-09-05T00:26:29.017Z,20.10
2022-09-05T00:29:11.331Z,20.00
2022-09-05T00:31:57.495Z,19.90
2022-09-05T00:34:50.332Z,19.90
2022-09-05T00:37:34.826Z,19.90
2022-09-05T00:40:25.523Z,19.80
2022-09-05T00:42:58.188Z,19.70
2022-09-05T00:45:34.577Z,19.50
2022-09-05T00:48:23.301Z,19.40
2022-09-05T00:51:16.055Z,19.30
2022-09-05T00:53:56.871Z,19.10
2022-09-05T00:56:55.255Z,19.00
2022-09-05T00:59:59.072Z,19.00
2022-09-05T01:02:51.634Z,19.10
2022-09-05T01:05:39.014Z,19.30
2022-09-05T01:08:37.339Z,19.40
2022-09-05T01:11:12.566Z,19.50
2022-09-05T01:13:49.576Z,19.50
2022-09-05T01:16:25.169Z,19.60
2022-09-05T01:19:06.762Z,19.60
2022-09-05T01:22:06.500Z,19.70
2022-09-05T01:25:04.239Z,19.70
2022-09-05T01:29:13.646Z,19.50
2022-09-05T01:30:44.982Z,19.40
2022-09-05T01:33:24.074Z,19.30
2022-09-05T01:36:05.834Z,19.30
2022-09-05T01:38:43.023Z,19.30
2022-09-05T01:41:41.807Z,19.20
2022-09-05T01:44:29.021Z,19.10
2022-09-05T01:47:09.704Z,18.90
2022-09-05T01:49:48.098Z,18.70
2022-09-05T01:52:57.074Z,18.70
2022-09-05T01:56:03.926Z,18.70
2022-09-05T01:58:38.672Z,18.70
2022-09-05T02:01:26.999Z,18.70
2022-09-05T02:04:19.375Z,18.80
2022-09-05T02:07:30.424Z,18.90
2022-09-05T02:10:28.844Z,19.00
2022-09-05T02:13:04.311Z,19.10
2022-09-05T02:15:45.122Z,19.10
2022-09-05T02:18:44.337Z,19.00
2022-09-05T02:21:23.033Z,18.80
2022-09-05T02:24:02.936Z,18.80
2022-09-05T02:26:37.412Z,18.70
2022-09-05T02:29:28.586Z,18.70
2022-09-05T02:32:01.968Z,18.70
2022-09-05T02:34:41.099Z,18.70
2022-09-05T02:37:16.000Z,18.80
2022-09-05T02:45:06.538Z,19.00
2022-09-05T02:45:07.123Z,18.90
2022-09-05T02:45:52.177Z,19.00
2022-09-05T02:48:28.144Z,19.10
2022-09-05T02:55:56.081Z,19.20
2022-09-05T02:57:43.270Z,19.20
2022-09-05T02:58:05.845Z,19.20
2022-09-05T03:00:05.500Z,19.10
2022-09-05T03:02:49.468Z,19.10
2022-09-05T03:05:24.936Z,19.10
2022-09-05T03:08:13.432Z,19.10
2022-09-05T03:11:05.161Z,19.20
2022-09-05T03:14:12.129Z,19.20
2022-09-05T03:17:12.242Z,19.10
2022-09-05T03:20:12.761Z,19.00
2022-09-05T03:23:34.038Z,18.90
2022-09-05T03:26:38.957Z,18.70
2022-09-05T03:29:58.420Z,18.50
2022-09-05T03:33:06.945Z,18.40
2022-09-05T03:36:16.530Z,18.50
2022-09-05T03:39:28.277Z,18.40
2022-09-05T03:42:19.231Z,18.30
2022-09-05T03:45:13.773Z,18.10
2022-09-05T03:48:28.535Z,17.90
2022-09-05T03:57:05.077Z,17.60
2022-09-05T03:57:15.588Z,17.60
2022-09-05T03:57:41.567Z,17.70
2022-09-05T04:00:20.881Z,17.80
2022-09-05T04:07:36.709Z,17.90
2022-09-05T04:08:20.389Z,18.10
2022-09-05T04:08:52.230Z,18.20
2022-09-05T04:11:35.821Z,18.30
2022-09-05T04:14:08.277Z,18.30
2022-09-05T04:16:49.814Z,18.50
2022-09-05T04:19:27.777Z,18.40
2022-09-05T04:22:06.540Z,18.30
2022-09-05T04:24:45.077Z,18.20
2022-09-05T04:27:32.853Z,18.20
2022-09-05T04:30:14.687Z,18.10
2022-09-05T04:33:00.495Z,18.00
2022-09-05T04:35:38.753Z,17.80
2022-09-05T04:38:13.335Z,17.70
2022-09-05T04:40:48.493Z,17.70
2022-09-05T04:43:31.500Z,17.70
2022-09-05T04:46:15.719Z,17.70
2022-09-05T04:48:55.057Z,17.70
2022-09-05T04:52:00.270Z,17.70
2022-09-05T04:54:36.534Z,17.70
2022-09-05T04:57:16.098Z,17.80
2022-09-05T05:03:31.293Z,17.70
2022-09-05T05:06:08.155Z,17.80
2022-09-05T05:06:11.030Z,17.70
2022-09-05T05:08:47.248Z,17.90
2022-09-05T05:17:54.252Z,18.00
2022-09-05T05:18:13.272Z,18.10
2022-09-05T05:18:15.469Z,18.10
2022-09-05T05:20:40.497Z,18.10
2022-09-05T05:23:07.410Z,18.10
2022-09-05T05:25:46.793Z,18.10
2022-09-05T05:28:25.173Z,18.10
2022-09-05T05:31:01.177Z,18.20
2022-09-05T05:33:33.731Z,18.20
2022-09-05T05:36:08.008Z,18.10
2022-09-05T05:38:44.040Z,18.10
2022-09-05T05:41:20.845Z,18.20
2022-09-05T05:43:51.005Z,18.20
2022-09-05T05:46:30.030Z,18.30
2022-09-05T05:49:14.909Z,18.30
2022-09-05T05:52:01.464Z,18.50
2022-09-05T05:54:39.019Z,18.50
2022-09-05T05:57:23.684Z,18.50
2022-09-05T06:00:05.235Z,18.60
2022-09-05T06:03:27.018Z,18.70
2022-09-05T06:06:29.451Z,18.80
2022-09-05T06:14:50.623Z,18.90
2022-09-05T06:14:56.702Z,19.10
2022-09-05T06:16:45.711Z,19.30
2022-09-05T06:21:38.954Z,19.50
2022-09-05T06:23:16.552Z,19.60
2022-09-05T06:26:33.673Z,19.70
2022-09-05T06:29:16.681Z,19.80
2022-09-05T06:31:56.529Z,20.00
2022-09-05T06:34:48.833Z,20.10
2022-09-05T06:37:27.964Z,20.10
2022-09-05T06:40:09.548Z,20.20
2022-09-05T06:42:53.144Z,20.30
2022-09-05T06:45:34.768Z,20.20
2022-09-05T06:48:13.659Z,20.30
2022-09-05T06:51:12.878Z,20.30
2022-09-05T06:54:04.667Z,20.30
2022-09-05T06:56:56.205Z,20.20
2022-09-05T07:00:00.541Z,20.30
2022-09-05T07:02:59.469Z,20.30
2022-09-05T07:05:39.901Z,20.40
2022-09-05T07:08:35.035Z,20.30
2022-09-05T07:11:15.509Z,20.30
2022-09-05T07:13:56.181Z,20.30
2022-09-05T07:16:38.762Z,20.20
2022-09-05T07:19:26.819Z,20.30
2022-09-05T07:22:46.668Z,20.40
2022-09-05T07:25:08.861Z,20.40
2022-09-05T07:28:26.827Z,20.60
2022-09-05T07:30:34.932Z,20.70
2022-09-05T07:33:05.248Z,20.90
2022-09-05T07:35:42.277Z,21.00
2022-09-05T07:38:16.442Z,21.10
2022-09-05T07:40:52.884Z,21.20
2022-09-05T07:43:26.444Z,21.40
2022-09-05T07:46:11.751Z,21.50
2022-09-05T07:48:44.443Z,21.50
2022-09-05T07:56:54.261Z,21.50
2022-09-05T07:56:54.711Z,21.60
2022-09-05T07:57:30.027Z,21.80
2022-09-05T08:00:06.981Z,21.90
2022-09-05T08:02:47.020Z,22.10
2022-09-05T08:05:34.666Z,22.20
2022-09-05T08:08:10.469Z,22.30
2022-09-05T08:11:24.430Z,22.30
2022-09-05T08:14:40.609Z,22.40
2022-09-05T08:16:48.780Z,22.50
2022-09-05T08:19:41.780Z,22.60
2022-09-05T08:22:21.191Z,22.60
2022-09-05T08:25:00.156Z,22.70
2022-09-05T08:27:39.593Z,22.70
2022-09-05T08:30:26.601Z,22.70
2022-09-05T08:33:11.218Z,22.70
2022-09-05T08:35:45.550Z,22.90
2022-09-05T08:38:17.247Z,23.00
2022-09-05T08:40:57.655Z,23.10
2022-09-05T08:46:36.372Z,23.10
2022-09-05T08:46:42.292Z,23.20
2022-09-05T08:49:50.446Z,23.30
2022-09-05T08:52:29.444Z,23.50
2022-09-05T08:55:11.385Z,23.60
2022-09-05T08:58:20.414Z,23.70
2022-09-05T09:01:00.347Z,23.80
2022-09-05T09:03:35.587Z,24.00
2022-09-05T09:06:40.564Z,24.00
2022-09-05T09:09:14.793Z,24.10
2022-09-05T09:11:49.634Z,24.20
2022-09-05T09:14:46.319Z,24.20
2022-09-05T09:17:39.062Z,24.10
2022-09-05T09:20:17.080Z,24.10
2022-09-05T09:22:59.648Z,24.20
2022-09-05T09:25:34.211Z,24.30
2022-09-05T09:28:50.545Z,24.40
2022-09-05T09:31:36.904Z,24.50
2022-09-05T09:34:29.995Z,24.60
2022-09-05T09:37:18.776Z,24.70
2022-09-05T09:40:23.460Z,24.70
2022-09-05T09:42:54.701Z,24.90
2022-09-05T09:45:52.284Z,25.10
2022-09-05T09:48:49.772Z,25.30
2022-09-05T09:51:34.805Z,25.50
2022-09-05T09:54:38.061Z,25.60
2022-09-05T09:57:28.010Z,25.80
2022-09-05T10:00:10.601Z,25.80
2022-09-05T10:06:43.773Z,26.00
2022-09-05T10:10:45.320Z,26.10
2022-09-05T10:10:50.597Z,26.00
2022-09-05T10:13:08.034Z,26.10
2022-09-05T10:15:53.792Z,26.20
2022-09-05T10:18:43.116Z,26.00
2022-09-05T10:21:37.161Z,26.20
2022-09-05T10:24:43.032Z,26.30
2022-09-05T10:27:26.143Z,26.60
2022-09-05T10:30:09.350Z,26.60
2022-09-05T10:35:11.369Z,26.60
2022-09-05T10:35:44.814Z,26.70
2022-09-05T10:38:19.989Z,26.80
2022-09-05T10:41:07.995Z,27.00
2022-09-05T10:43:50.304Z,27.30
2022-09-05T10:46:51.200Z,27.50
2022-09-05T10:49:29.946Z,27.70
2022-09-05T10:52:18.625Z,28.00
2022-09-05T10:55:15.046Z,28.10
2022-09-05T10:57:59.628Z,28.20
2022-09-05T11:02:20.159Z,28.30
2022-09-05T11:03:50.925Z,28.40
2022-09-05T11:06:25.183Z,28.40
2022-09-05T11:09:04.792Z,28.40
2022-09-05T11:11:46.080Z,28.50
2022-09-05T11:14:42.267Z,28.60
2022-09-05T11:17:22.613Z,28.70
2022-09-05T11:20:02.087Z,28.80
2022-09-05T11:22:38.833Z,28.80
2022-09-05T11:25:17.126Z,28.90
2022-09-05T11:27:51.775Z,29.00
2022-09-05T11:30:29.904Z,29.10
2022-09-05T11:39:47.013Z,29.30
2022-09-05T11:39:48.632Z,29.20
2022-09-05T11:39:59.172Z,29.30
2022-09-05T11:42:25.642Z,29.30
2022-09-05T11:45:22.745Z,29.30
2022-09-05T11:48:24.377Z,29.30
2022-09-05T11:51:07.980Z,29.40
2022-09-05T11:54:01.376Z,29.50
2022-09-05T11:57:20.085Z,29.70
2022-09-05T12:00:31.353Z,29.90
2022-09-05T12:03:59.730Z,29.90
2022-09-05T12:07:00.521Z,29.80
2022-09-05T12:09:46.676Z,29.80
2022-09-05T12:12:41.367Z,29.70
2022-09-05T12:15:27.148Z,29.80
2022-09-05T12:18:12.643Z,29.80
2022-09-05T12:20:57.483Z,29.70
2022-09-05T12:23:55.310Z,29.70
2022-09-05T12:27:40.467Z,29.80
2022-09-05T12:29:35.020Z,29.80
2022-09-05T12:33:47.792Z,29.90
2022-09-05T12:36:03.852Z,29.90
2022-09-05T12:40:45.024Z,30.00
2022-09-05T12:41:42.657Z,30.00
2022-09-05T12:44:38.394Z,30.10
2022-09-05T12:46:54.561Z,30.20
2022-09-05T12:49:36.119Z,30.30
2022-09-05T12:52:07.100Z,30.30
2022-09-05T12:54:46.427Z,30.40
2022-09-05T13:02:59.400Z,30.60
2022-09-05T13:03:00.956Z,30.80
2022-09-05T13:03:27.205Z,31.00
2022-09-05T13:06:09.390Z,31.20
2022-09-05T13:08:58.983Z,31.40
2022-09-05T13:14:47.524Z,31.60
2022-09-05T13:14:56.313Z,32.00
2022-09-05T13:17:15.917Z,32.30
2022-09-05T13:19:51.813Z,32.50
2022-09-05T13:22:25.479Z,32.80
2022-09-05T13:25:04.281Z,33.00
2022-09-05T13:27:40.928Z,33.20
2022-09-05T13:34:05.859Z,33.50
2022-09-05T13:38:01.419Z,33.90
2022-09-05T13:38:02.192Z,33.80
2022-09-05T13:39:01.346Z,33.90
2022-09-05T13:41:32.377Z,34.30
2022-09-05T13:44:26.496Z,34.50
2022-09-05T13:46:58.593Z,34.60
2022-09-05T13:49:33.437Z,34.70
2022-09-05T13:52:19.136Z,34.20
2022-09-05T13:54:51.973Z,33.40
2022-09-05T13:57:36.889Z,32.90
2022-09-05T14:00:54.179Z,32.40
2022-09-05T14:04:06.055Z,32.00
2022-09-05T14:10:16.335Z,31.70
2022-09-05T14:12:49.667Z,31.80
2022-09-05T14:15:30.849Z,31.80
2022-09-05T14:18:20.331Z,31.80
2022-09-05T14:21:12.977Z,31.70
2022-09-05T14:23:53.845Z,31.40
2022-09-05T14:26:28.107Z,31.30
2022-09-05T14:29:16.332Z,31.30
2022-09-05T14:37:46.137Z,31.20
2022-09-05T14:37:52.441Z,31.20
2022-09-05T14:38:13.250Z,31.00
2022-09-05T14:41:25.496Z,30.80
2022-09-05T14:44:15.587Z,30.70
2022-09-05T14:47:05.128Z,30.60
2022-09-05T14:50:06.152Z,30.50
2022-09-05T14:52:43.672Z,30.30
2022-09-05T15:02:39.358Z,30.20
2022-09-05T15:02:47.776Z,30.10
2022-09-05T15:06:39.797Z,30.10
2022-09-05T15:11:45.660Z,30.00
2022-09-05T15:12:27.593Z,30.00
2022-09-05T15:15:13.306Z,30.00
2022-09-05T15:17:47.698Z,29.90
2022-09-05T15:20:30.423Z,29.90
2022-09-05T15:22:59.624Z,29.80
2022-09-05T15:25:48.784Z,29.80
2022-09-05T15:28:23.118Z,29.80
2022-09-05T15:31:02.594Z,29.60
2022-09-05T15:33:32.749Z,29.60
2022-09-05T15:36:03.257Z,29.50
2022-09-05T15:38:55.408Z,29.40
2022-09-05T15:41:25.932Z,29.30
2022-09-05T15:44:02.156Z,29.20
2022-09-05T15:46:47.116Z,29.10
2022-09-05T15:49:29.448Z,29.00
2022-09-05T15:52:00.800Z,28.80
2022-09-05T15:54:38.726Z,28.70
2022-09-05T15:57:17.812Z,28.60
2022-09-05T15:59:52.384Z,28.50
2022-09-05T16:02:26.410Z,28.50
2022-09-05T16:10:35.321Z,28.40
2022-09-05T16:10:35.968Z,28.40
2022-09-05T16:14:24.510Z,28.20
2022-09-05T16:23:11.793Z,28.20
2022-09-05T16:23:24.778Z,28.10
2022-09-05T16:23:26.017Z,28.20
2022-09-05T16:25:35.600Z,28.00
2022-09-05T16:28:07.216Z,27.90
2022-09-05T16:30:39.352Z,27.90
2022-09-05T16:33:14.336Z,27.90
2022-09-05T16:35:50.332Z,27.80
2022-09-05T16:38:34.559Z,27.80
2022-09-05T16:41:21.033Z,27.80
2022-09-05T16:43:55.720Z,27.80
2022-09-05T16:46:31.602Z,27.80
2022-09-05T16:49:11.791Z,27.80
2022-09-05T16:51:50.044Z,27.70
2022-09-05T16:54:25.471Z,27.60
2022-09-05T16:56:57.139Z,27.60
2022-09-05T16:59:28.614Z,27.50
2022-09-05T17:02:08.100Z,27.40
2022-09-05T17:05:03.349Z,27.40
2022-09-05T17:07:54.048Z,27.30
2022-09-05T17:10:27.934Z,27.30
2022-09-05T17:12:57.399Z,27.20
2022-09-05T17:15:30.429Z,27.20
2022-09-05T17:18:20.441Z,27.20
2022-09-05T17:20:55.797Z,27.10
2022-09-05T17:29:16.897Z,27.10
2022-09-05T17:29:31.935Z,27.10
2022-09-05T17:32:53.862Z,27.10
2022-09-05T17:35:42.451Z,27.00
2022-09-05T17:38:55.819Z,26.90
2022-09-05T17:42:15.093Z,26.90
2022-09-05T17:44:50.696Z,26.80
2022-09-05T17:47:34.750Z,26.80
2022-09-05T17:50:20.840Z,26.80
2022-09-05T17:53:25.666Z,26.70
2022-09-05T17:56:27.821Z,26.70
2022-09-05T17:59:05.313Z,26.60
2022-09-05T18:01:35.386Z,26.60
2022-09-05T18:04:17.825Z,26.50
2022-09-05T18:07:00.338Z,26.50
2022-09-05T18:10:08.887Z,26.50
2022-09-05T18:13:31.149Z,26.40
2022-09-05T18:16:11.199Z,26.40
2022-09-05T18:19:32.888Z,26.20
2022-09-05T18:21:57.289Z,26.20
2022-09-05T18:24:33.662Z,26.10
2022-09-05T18:27:43.732Z,26.10
2022-09-05T18:30:11.227Z,26.10
2022-09-05T18:32:46.552Z,26.00
2022-09-05T18:35:36.400Z,26.00
2022-09-05T18:38:29.723Z,25.80
2022-09-05T18:41:21.822Z,25.70
2022-09-05T18:44:12.089Z,25.70
2022-09-05T18:46:47.820Z,25.60
2022-09-05T18:50:08.170Z,25.50
2022-09-05T18:52:23.808Z,25.50
2022-09-05T18:55:34.035Z,25.50
2022-09-05T18:57:57.857Z,25.40
2022-09-05T19:00:46.621Z,25.40
2022-09-05T19:03:25.126Z,25.40
2022-09-05T19:06:35.127Z,25.40
2022-09-05T19:08:53.644Z,25.30
2022-09-05T19:11:36.972Z,25.20
2022-09-05T19:14:26.591Z,25.10
2022-09-05T19:17:07.636Z,25.10
2022-09-05T19:20:31.933Z,25.00
2022-09-05T19:23:10.569Z,24.90
2022-09-05T19:25:43.798Z,24.90
2022-09-05T19:36:30.826Z,24.80
2022-09-05T19:36:56.790Z,24.90
2022-09-05T19:37:07.769Z,24.90
2022-09-05T19:44:09.018Z,24.80
2022-09-05T19:47:51.103Z,24.70
2022-09-05T19:47:51.104Z,24.60
2022-09-05T19:51:16.539Z,24.60
2022-09-05T19:54:03.849Z,24.50
2022-09-05T19:56:37.637Z,24.50
2022-09-05T19:59:18.246Z,24.40
2022-09-05T20:01:47.542Z,24.40
2022-09-05T20:04:19.122Z,24.40
2022-09-05T20:06:49.193Z,24.40
2022-09-05T20:09:20.770Z,24.30
2022-09-05T20:11:50.494Z,24.30
2022-09-05T20:14:25.108Z,24.20
2022-09-05T20:16:56.936Z,24.10
2022-09-05T20:19:29.651Z,24.10
2022-09-05T20:22:14.295Z,24.20
2022-09-05T20:24:52.069Z,24.20
2022-09-05T20:27:27.269Z,24.20
2022-09-05T20:29:59.480Z,24.20
2022-09-05T20:32:39.059Z,24.20
2022-09-05T20:36:31.307Z,24.20
2022-09-05T20:43:24.002Z,24.10
2022-09-05T20:43:28.033Z,24.10
2022-09-05T20:44:00.103Z,24.00
2022-09-05T20:50:14.324Z,24.00
2022-09-05T20:54:17.178Z,24.00
2022-09-05T20:54:21.352Z,24.00
2022-09-05T20:55:39.102Z,24.00
2022-09-05T20:58:13.539Z,23.90
2022-09-05T21:01:19.779Z,23.90
2022-09-05T21:03:39.916Z,23.90
2022-09-05T21:06:22.585Z,23.90
2022-09-05T21:08:59.453Z,23.90
2022-09-05T21:11:33.217Z,23.90
2022-09-05T21:14:05.720Z,23.80
2022-09-05T21:16:38.472Z,23.80
2022-09-05T21:19:07.768Z,23.70
2022-09-05T21:21:36.806Z,23.60
2022-09-05T21:24:16.615Z,23.50
2022-09-05T21:26:49.364Z,23.50
2022-09-05T21:29:27.366Z,23.40
2022-09-05T21:32:04.066Z,23.30
2022-09-05T21:34:45.050Z,23.20
2022-09-05T21:37:16.866Z,23.20
2022-09-05T21:39:59.472Z,23.20
2022-09-05T21:47:33.048Z,23.20
2022-09-05T21:47:49.493Z,23.30
2022-09-05T21:48:14.922Z,23.30
2022-09-05T21:50:46.733Z,23.30
2022-09-05T21:55:09.373Z,23.30
2022-09-05T21:59:18.403Z,23.20
2022-09-05T21:59:30.625Z,23.30
2022-09-05T22:02:07.342Z,23.20
2022-09-05T22:04:40.870Z,23.20
2022-09-05T22:07:14.625Z,23.30
2022-09-05T22:09:43.728Z,23.30
2022-09-05T22:12:30.028Z,23.30
2022-09-05T22:15:04.542Z,23.20
2022-09-05T22:17:52.521Z,23.20
2022-09-05T22:20:22.625Z,23.20
2022-09-05T22:22:56.911Z,23.10
2022-09-05T22:25:29.752Z,23.10
2022-09-05T22:28:06.553Z,23.10
2022-09-05T22:30:36.681Z,23.10
2022-09-05T22:33:07.029Z,23.00
2022-09-05T22:35:37.090Z,23.00
2022-09-05T22:38:11.661Z,23.10
2022-09-05T22:40:43.128Z,23.00
2022-09-05T22:43:12.264Z,23.00
2022-09-05T22:45:41.490Z,23.00
2022-09-05T22:48:13.416Z,23.00
2022-09-05T22:50:43.555Z,23.00
2022-09-05T22:53:12.192Z,22.90
2022-09-05T22:55:42.862Z,22.80
2022-09-05T22:58:12.607Z,22.80
2022-09-05T23:00:44.419Z,22.70
2022-09-05T23:03:14.309Z,22.70
2022-09-05T23:05:43.744Z,22.70
2022-09-05T23:08:12.413Z,22.80
2022-09-05T23:10:41.054Z,22.80
2022-09-05T23:13:11.175Z,22.70
2022-09-05T23:15:40.315Z,22.80
2022-09-05T23:18:08.851Z,22.80
2022-09-05T23:20:39.003Z,22.80
2022-09-05T23:23:08.824Z,22.70
2022-09-05T23:25:37.453Z,22.70
2022-09-05T23:28:07.653Z,22.70
2022-09-05T23:30:36.534Z,22.70
2022-09-05T23:33:07.686Z,22.70
2022-09-05T23:35:36.569Z,22.70
2022-09-05T23:38:11.492Z,22.70
2022-09-05T23:40:40.158Z,22.70
2022-09-05T23:43:08.824Z,22.70
2022-09-05T23:45:37.485Z,22.60
2022-09-05T23:48:06.172Z,22.60
2022-09-05T23:50:35.108Z,22.60
2022-09-05T23:53:05.964Z,22.60
2022-09-05T23:55:34.882Z,22.60
2022-09-05T23:58:03.756Z,22.60
